Current | Forecast
Updated: 9:00 AM +05 on January 21, 2019
Observed at Petropavlosk South Airpor, Kazakhstan
Temperature 23°F
Windchill 8°F
Humidity 93%
Dew Point 21°F
Wind WSW at 20 mph
Pressure 29.80 in (Steady)
Conditions Light Snow Showers
Visibility 4.3 miles
UV 0 out of 16
Clouds Mostly Cloudy (BKN) : 800 ft
Overcast (OVC) : 2300 ft
Yesterday's Minimum 1000°F approx.
Yesterday's Cooling Degree Days N/A approx.
Sunrise9:26 AM +06
Sunset5:32 PM +06
Moon Rise5:44 PM +06
Moon Set9:32 AM +06
Moon PhaseMoon Phase
Full Moon
Raw METARMETAR UACP 210400Z 24009MPS 7000 -SHSN DRSN BKN008 OVC023CB M05/M06 Q1009 R23/4/4034 NOSIG RMK QFE744/0993



Units: English | Metric

Find the Weather for any City, State or Zipcode, or Country:

U.S. State List | Severe Weather | Tropical Storms | Ski Conditions
United States | Canada | Central America | South America | Asia | Europe | Australia | Africa | Islands

Weather Underground

© Copyright 2019
The Weather Company, LLC